sensor_id;sensor_type;location;lat;lon;timestamp;pressure;altitude;pressure_sealevel;temperature;humidity
12949;BME280;6539;49.476;8.484;2022-12-19T00:01:26;101598.38;;;1.08;62.35
12949;BME280;6539;49.476;8.484;2022-12-19T00:03:59;101604.72;;;1.03;63.02
12949;BME280;6539;49.476;8.484;2022-12-19T00:06:27;101601.81;;;1.00;63.27
12949;BME280;6539;49.476;8.484;2022-12-19T00:08:57;101599.78;;;1.05;62.69
12949;BME280;6539;49.476;8.484;2022-12-19T00:11:26;101595.16;;;1.06;63.09
12949;BME280;6539;49.476;8.484;2022-12-19T00:13:55;101582.91;;;1.08;63.05
12949;BME280;6539;49.476;8.484;2022-12-19T00:16:27;101588.44;;;0.95;63.19
12949;BME280;6539;49.476;8.484;2022-12-19T00:18:59;101578.09;;;0.88;63.81
12949;BME280;6539;49.476;8.484;2022-12-19T00:21:30;101575.69;;;0.95;63.71
12949;BME280;6539;49.476;8.484;2022-12-19T00:23:57;101569.56;;;1.03;63.47
12949;BME280;6539;49.476;8.484;2022-12-19T00:29:02;101563.72;;;1.18;63.46
12949;BME280;6539;49.476;8.484;2022-12-19T00:31:32;101560.09;;;1.23;63.23
12949;BME280;6539;49.476;8.484;2022-12-19T00:34:01;101549.91;;;1.28;63.63
12949;BME280;6539;49.476;8.484;2022-12-19T00:36:32;101560.88;;;1.32;63.25
12949;BME280;6539;49.476;8.484;2022-12-19T00:39:03;101556.44;;;1.36;63.05
12949;BME280;6539;49.476;8.484;2022-12-19T00:41:35;101553.78;;;1.44;62.36
12949;BME280;6539;49.476;8.484;2022-12-19T00:44:14;101550.56;;;1.51;61.96
12949;BME280;6539;49.476;8.484;2022-12-19T00:46:41;101547.09;;;1.59;61.76
12949;BME280;6539;49.476;8.484;2022-12-19T00:49:07;101551.72;;;1.67;62.03
12949;BME280;6539;49.476;8.484;2022-12-19T00:51:35;101555.84;;;1.65;61.68
12949;BME280;6539;49.476;8.484;2022-12-19T00:54:02;101553.47;;;1.72;61.09
12949;BME280;6539;49.476;8.484;2022-12-19T00:56:34;101538.81;;;1.73;61.34
12949;BME280;6539;49.476;8.484;2022-12-19T00:59:02;101542.50;;;1.77;61.40
12949;BME280;6539;49.476;8.484;2022-12-19T01:01:34;101545.03;;;1.82;61.24
12949;BME280;6539;49.476;8.484;2022-12-19T01:04:05;101543.47;;;1.81;60.85
12949;BME280;6539;49.476;8.484;2022-12-19T01:06:33;101540.09;;;1.84;61.18
12949;BME280;6539;49.476;8.484;2022-12-19T01:09:00;101550.63;;;1.85;61.29
12949;BME280;6539;49.476;8.484;2022-12-19T01:11:25;101538.34;;;1.88;61.23
12949;BME280;6539;49.476;8.484;2022-12-19T01:14:14;101537.41;;;1.92;61.35
12949;BME280;6539;49.476;8.484;2022-12-19T01:16:39;101533.44;;;1.90;61.35
12949;BME280;6539;49.476;8.484;2022-12-19T01:19:07;101543.28;;;1.86;61.44
12949;BME280;6539;49.476;8.484;2022-12-19T01:21:38;101546.78;;;1.95;61.79
12949;BME280;6539;49.476;8.484;2022-12-19T01:24:05;101535.00;;;1.91;61.64
12949;BME280;6539;49.476;8.484;2022-12-19T01:26:31;101539.00;;;1.93;61.44
12949;BME280;6539;49.476;8.484;2022-12-19T01:28:59;101539.00;;;1.93;61.80
12949;BME280;6539;49.476;8.484;2022-12-19T01:31:25;101543.00;;;1.96;61.93
12949;BME280;6539;49.476;8.484;2022-12-19T01:33:51;101539.63;;;1.99;62.04
12949;BME280;6539;49.476;8.484;2022-12-19T01:36:19;101535.47;;;2.10;62.03
12949;BME280;6539;49.476;8.484;2022-12-19T01:38:45;101531.81;;;2.06;61.82
12949;BME280;6539;49.476;8.484;2022-12-19T01:41:11;101534.03;;;2.12;61.44
12949;BME280;6539;49.476;8.484;2022-12-19T01:44:00;101538.50;;;2.17;61.44
12949;BME280;6539;49.476;8.484;2022-12-19T01:46:37;101534.97;;;2.25;61.30
12949;BME280;6539;49.476;8.484;2022-12-19T01:49:13;101517.78;;;2.21;61.56
12949;BME280;6539;49.476;8.484;2022-12-19T01:51:46;101517.16;;;2.24;61.79
12949;BME280;6539;49.476;8.484;2022-12-19T01:54:23;101513.16;;;2.30;61.17
12949;BME280;6539;49.476;8.484;2022-12-19T01:56:52;101514.72;;;2.31;61.20
12949;BME280;6539;49.476;8.484;2022-12-19T01:59:49;101508.19;;;2.32;61.05
12949;BME280;6539;49.476;8.484;2022-12-19T02:02:32;101515.53;;;2.23;61.38
12949;BME280;6539;49.476;8.484;2022-12-19T02:04:59;101505.03;;;2.30;61.79
12949;BME280;6539;49.476;8.484;2022-12-19T02:07:27;101500.53;;;2.34;61.23
12949;BME280;6539;49.476;8.484;2022-12-19T02:10:02;101504.53;;;2.37;61.54
12949;BME280;6539;49.476;8.484;2022-12-19T02:12:35;101512.19;;;2.35;61.62
12949;BME280;6539;49.476;8.484;2022-12-19T02:15:05;101517.44;;;2.31;61.31
12949;BME280;6539;49.476;8.484;2022-12-19T02:17:53;101523.19;;;2.29;61.22
12949;BME280;6539;49.476;8.484;2022-12-19T02:26:47;101503.41;;;2.29;60.66
12949;BME280;6539;49.476;8.484;2022-12-19T02:33:00;101486.53;;;2.32;60.42
12949;BME280;6539;49.476;8.484;2022-12-19T02:35:55;101484.94;;;2.31;60.31
12949;BME280;6539;49.476;8.484;2022-12-19T02:39:00;101484.44;;;2.29;59.96
12949;BME280;6539;49.476;8.484;2022-12-19T02:41:49;101482.69;;;2.33;59.85
12949;BME280;6539;49.476;8.484;2022-12-19T02:44:22;101489.13;;;2.20;60.04
12949;BME280;6539;49.476;8.484;2022-12-19T02:46:51;101500.44;;;2.13;60.36
12949;BME280;6539;49.476;8.484;2022-12-19T02:49:19;101491.31;;;2.18;60.32
12949;BME280;6539;49.476;8.484;2022-12-19T02:51:47;101484.94;;;2.22;60.34
12949;BME280;6539;49.476;8.484;2022-12-19T02:54:13;101488.78;;;2.30;59.95
12949;BME280;6539;49.476;8.484;2022-12-19T02:56:57;101486.41;;;2.20;60.14
12949;BME280;6539;49.476;8.484;2022-12-19T03:00:24;101497.38;;;2.32;59.94
12949;BME280;6539;49.476;8.484;2022-12-19T03:03:09;101495.75;;;2.40;60.02
12949;BME280;6539;49.476;8.484;2022-12-19T03:06:02;101497.53;;;2.27;59.73
12949;BME280;6539;49.476;8.484;2022-12-19T03:08:41;101492.75;;;2.33;59.86
12949;BME280;6539;49.476;8.484;2022-12-19T03:11:13;101499.59;;;2.30;59.54
12949;BME280;6539;49.476;8.484;2022-12-19T03:13:57;101502.78;;;2.32;59.87
12949;BME280;6539;49.476;8.484;2022-12-19T03:16:27;101501.50;;;2.38;59.92
12949;BME280;6539;49.476;8.484;2022-12-19T03:18:56;101499.25;;;2.40;59.39
12949;BME280;6539;49.476;8.484;2022-12-19T03:21:35;101494.78;;;2.44;59.19
12949;BME280;6539;49.476;8.484;2022-12-19T03:24:06;101498.28;;;2.45;59.43
12949;BME280;6539;49.476;8.484;2022-12-19T03:30:10;101494.31;;;2.33;59.04
12949;BME280;6539;49.476;8.484;2022-12-19T03:32:41;101494.81;;;2.27;58.99
12949;BME280;6539;49.476;8.484;2022-12-19T03:35:19;101489.06;;;2.37;58.96
12949;BME280;6539;49.476;8.484;2022-12-19T03:37:51;101489.84;;;2.38;59.03
12949;BME280;6539;49.476;8.484;2022-12-19T03:40:24;101492.41;;;2.34;59.01
12949;BME280;6539;49.476;8.484;2022-12-19T03:43:04;101487.13;;;2.38;58.97
12949;BME280;6539;49.476;8.484;2022-12-19T03:46:05;101480.66;;;2.30;59.10
12949;BME280;6539;49.476;8.484;2022-12-19T03:48:50;101488.31;;;2.19;59.33
12949;BME280;6539;49.476;8.484;2022-12-19T03:51:30;101494.69;;;2.15;59.48
12949;BME280;6539;49.476;8.484;2022-12-19T03:54:01;101491.50;;;2.21;59.81
12949;BME280;6539;49.476;8.484;2022-12-19T03:56:55;101493.41;;;2.21;59.95
12949;BME280;6539;49.476;8.484;2022-12-19T04:02:02;101483.19;;;2.35;60.18
12949;BME280;6539;49.476;8.484;2022-12-19T04:04:36;101479.34;;;2.36;60.72
12949;BME280;6539;49.476;8.484;2022-12-19T04:07:05;101483.47;;;2.42;61.06
12949;BME280;6539;49.476;8.484;2022-12-19T04:09:33;101489.34;;;2.44;61.02
12949;BME280;6539;49.476;8.484;2022-12-19T04:12:11;101483.31;;;2.39;60.91
12949;BME280;6539;49.476;8.484;2022-12-19T04:14:41;101487.97;;;2.29;60.78
12949;BME280;6539;49.476;8.484;2022-12-19T04:17:46;101493.25;;;2.26;61.07
12949;BME280;6539;49.476;8.484;2022-12-19T04:20:18;101495.94;;;2.26;61.24
12949;BME280;6539;49.476;8.484;2022-12-19T04:23:04;101495.47;;;2.33;61.43
12949;BME280;6539;49.476;8.484;2022-12-19T04:25:45;101490.78;;;2.42;61.84
12949;BME280;6539;49.476;8.484;2022-12-19T04:28:54;101479.00;;;2.38;62.32
12949;BME280;6539;49.476;8.484;2022-12-19T04:31:22;101489.56;;;2.30;62.33
12949;BME280;6539;49.476;8.484;2022-12-19T04:33:48;101486.53;;;2.32;62.84
12949;BME280;6539;49.476;8.484;2022-12-19T04:36:16;101478.38;;;2.41;62.72
12949;BME280;6539;49.476;8.484;2022-12-19T04:38:45;101467.50;;;2.49;62.38
12949;BME280;6539;49.476;8.484;2022-12-19T04:41:13;101455.56;;;2.50;62.31
12949;BME280;6539;49.476;8.484;2022-12-19T04:43:39;101463.31;;;2.60;62.07
12949;BME280;6539;49.476;8.484;2022-12-19T04:46:07;101456.97;;;2.56;62.13
12949;BME280;6539;49.476;8.484;2022-12-19T04:48:36;101458.38;;;2.62;61.98
12949;BME280;6539;49.476;8.484;2022-12-19T04:51:04;101462.22;;;2.53;61.86
12949;BME280;6539;49.476;8.484;2022-12-19T04:53:31;101457.94;;;2.52;62.27
12949;BME280;6539;49.476;8.484;2022-12-19T04:56:06;101452.47;;;2.60;61.96
12949;BME280;6539;49.476;8.484;2022-12-19T04:58:36;101444.13;;;2.36;62.89
12949;BME280;6539;49.476;8.484;2022-12-19T05:01:09;101459.94;;;2.25;63.33
12949;BME280;6539;49.476;8.484;2022-12-19T05:03:39;101443.81;;;2.29;63.58
12949;BME280;6539;49.476;8.484;2022-12-19T05:06:11;101446.84;;;2.27;63.92
12949;BME280;6539;49.476;8.484;2022-12-19T05:08:41;101443.97;;;2.33;64.29
12949;BME280;6539;49.476;8.484;2022-12-19T05:11:09;101442.88;;;2.25;63.88
12949;BME280;6539;49.476;8.484;2022-12-19T05:13:35;101443.84;;;2.20;64.21
12949;BME280;6539;49.476;8.484;2022-12-19T05:16:04;101448.00;;;2.18;64.65
12949;BME280;6539;49.476;8.484;2022-12-19T05:18:34;101440.50;;;2.23;64.40
12949;BME280;6539;49.476;8.484;2022-12-19T05:21:01;101438.72;;;2.27;64.91
12949;BME280;6539;49.476;8.484;2022-12-19T05:23:28;101439.34;;;2.33;64.83
12949;BME280;6539;49.476;8.484;2022-12-19T05:25:58;101429.63;;;2.32;64.88
12949;BME280;6539;49.476;8.484;2022-12-19T05:28:24;101428.00;;;2.40;64.89
12949;BME280;6539;49.476;8.484;2022-12-19T05:31:05;101431.69;;;2.44;64.64
12949;BME280;6539;49.476;8.484;2022-12-19T05:33:34;101434.41;;;2.35;65.14
12949;BME280;6539;49.476;8.484;2022-12-19T05:36:05;101427.09;;;2.27;65.15
12949;BME280;6539;49.476;8.484;2022-12-19T05:38:31;101435.50;;;2.43;64.71
12949;BME280;6539;49.476;8.484;2022-12-19T05:40:57;101428.47;;;2.42;64.96
12949;BME280;6539;49.476;8.484;2022-12-19T05:43:23;101429.81;;;2.27;65.16
12949;BME280;6539;49.476;8.484;2022-12-19T05:45:49;101431.03;;;2.38;65.47
12949;BME280;6539;49.476;8.484;2022-12-19T05:48:16;101436.28;;;2.43;65.33
12949;BME280;6539;49.476;8.484;2022-12-19T05:50:47;101436.75;;;2.45;65.53
12949;BME280;6539;49.476;8.484;2022-12-19T05:53:15;101429.47;;;2.37;65.44
12949;BME280;6539;49.476;8.484;2022-12-19T05:55:41;101433.72;;;2.47;65.57
12949;BME280;6539;49.476;8.484;2022-12-19T05:58:07;101438.75;;;2.57;65.57
12949;BME280;6539;49.476;8.484;2022-12-19T06:00:35;101444.69;;;2.59;65.34
12949;BME280;6539;49.476;8.484;2022-12-19T06:03:03;101451.63;;;2.68;65.02
12949;BME280;6539;49.476;8.484;2022-12-19T06:05:36;101447.63;;;2.74;65.16
12949;BME280;6539;49.476;8.484;2022-12-19T06:08:02;101445.19;;;2.81;65.19
12949;BME280;6539;49.476;8.484;2022-12-19T06:10:28;101438.22;;;2.72;65.36
12949;BME280;6539;49.476;8.484;2022-12-19T06:12:56;101433.41;;;2.77;65.41
12949;BME280;6539;49.476;8.484;2022-12-19T06:15:22;101435.47;;;2.80;65.51
12949;BME280;6539;49.476;8.484;2022-12-19T06:17:51;101431.47;;;2.86;65.87
12949;BME280;6539;49.476;8.484;2022-12-19T06:20:17;101434.91;;;2.95;65.91
12949;BME280;6539;49.476;8.484;2022-12-19T06:22:43;101432.81;;;3.01;65.36
12949;BME280;6539;49.476;8.484;2022-12-19T06:25:12;101431.47;;;3.07;65.41
12949;BME280;6539;49.476;8.484;2022-12-19T06:27:38;101436.03;;;3.15;65.30
12949;BME280;6539;49.476;8.484;2022-12-19T06:30:07;101437.25;;;3.26;65.06
12949;BME280;6539;49.476;8.484;2022-12-19T06:32:33;101439.84;;;3.23;65.27
12949;BME280;6539;49.476;8.484;2022-12-19T06:34:59;101435.75;;;3.17;65.63
12949;BME280;6539;49.476;8.484;2022-12-19T06:37:28;101441.63;;;3.19;65.83
12949;BME280;6539;49.476;8.484;2022-12-19T06:39:55;101436.84;;;3.16;65.70
12949;BME280;6539;49.476;8.484;2022-12-19T06:42:21;101436.38;;;3.14;65.80
12949;BME280;6539;49.476;8.484;2022-12-19T06:44:50;101437.53;;;3.13;65.88
12949;BME280;6539;49.476;8.484;2022-12-19T06:47:16;101440.53;;;3.11;66.08
12949;BME280;6539;49.476;8.484;2022-12-19T06:49:41;101439.09;;;3.14;66.22
12949;BME280;6539;49.476;8.484;2022-12-19T06:52:07;101441.47;;;3.15;66.33
12949;BME280;6539;49.476;8.484;2022-12-19T06:54:33;101432.56;;;3.15;66.37
12949;BME280;6539;49.476;8.484;2022-12-19T06:57:01;101436.25;;;3.10;66.75
12949;BME280;6539;49.476;8.484;2022-12-19T06:59:29;101428.72;;;3.16;66.44
12949;BME280;6539;49.476;8.484;2022-12-19T07:02:14;101420.16;;;3.05;66.86
12949;BME280;6539;49.476;8.484;2022-12-19T07:04:58;101416.53;;;3.22;66.52
12949;BME280;6539;49.476;8.484;2022-12-19T07:07:26;101420.38;;;3.21;66.81
12949;BME280;6539;49.476;8.484;2022-12-19T07:09:53;101428.31;;;3.26;66.92
12949;BME280;6539;49.476;8.484;2022-12-19T07:12:18;101419.31;;;3.34;66.64
12949;BME280;6539;49.476;8.484;2022-12-19T07:14:44;101429.97;;;3.39;66.25
12949;BME280;6539;49.476;8.484;2022-12-19T07:17:13;101430.75;;;3.39;66.45
12949;BME280;6539;49.476;8.484;2022-12-19T07:19:39;101428.44;;;3.50;66.23
12949;BME280;6539;49.476;8.484;2022-12-19T07:22:06;101424.97;;;3.49;66.26
12949;BME280;6539;49.476;8.484;2022-12-19T07:24:33;101427.66;;;3.49;66.47
12949;BME280;6539;49.476;8.484;2022-12-19T07:27:00;101426.66;;;3.54;66.51
12949;BME280;6539;49.476;8.484;2022-12-19T07:29:26;101435.25;;;3.56;66.79
12949;BME280;6539;49.476;8.484;2022-12-19T07:31:53;101436.31;;;3.63;66.36
12949;BME280;6539;49.476;8.484;2022-12-19T07:34:18;101433.94;;;3.62;66.55
12949;BME280;6539;49.476;8.484;2022-12-19T07:36:44;101430.34;;;3.70;66.93
12949;BME280;6539;49.476;8.484;2022-12-19T07:39:16;101424.72;;;3.75;66.80
12949;BME280;6539;49.476;8.484;2022-12-19T07:41:42;101426.44;;;3.79;66.89
12949;BME280;6539;49.476;8.484;2022-12-19T07:44:10;101431.06;;;3.79;66.52
12949;BME280;6539;49.476;8.484;2022-12-19T07:46:37;101428.00;;;3.80;66.45
12949;BME280;6539;49.476;8.484;2022-12-19T07:49:04;101434.50;;;3.88;66.13
12949;BME280;6539;49.476;8.484;2022-12-19T07:51:30;101442.56;;;3.97;65.96
12949;BME280;6539;49.476;8.484;2022-12-19T07:54:00;101440.31;;;3.99;65.67
12949;BME280;6539;49.476;8.484;2022-12-19T07:56:28;101438.03;;;4.01;65.68
12949;BME280;6539;49.476;8.484;2022-12-19T07:58:54;101440.69;;;3.88;65.89
12949;BME280;6539;49.476;8.484;2022-12-19T08:01:20;101443.56;;;3.92;66.16
12949;BME280;6539;49.476;8.484;2022-12-19T08:03:45;101446.13;;;3.88;66.05
12949;BME280;6539;49.476;8.484;2022-12-19T08:06:11;101438.34;;;3.87;65.96
12949;BME280;6539;49.476;8.484;2022-12-19T08:08:41;101436.72;;;3.86;66.01
12949;BME280;6539;49.476;8.484;2022-12-19T08:11:17;101437.41;;;3.83;66.35
12949;BME280;6539;49.476;8.484;2022-12-19T08:13:44;101435.97;;;3.85;66.31
12949;BME280;6539;49.476;8.484;2022-12-19T08:16:10;101428.81;;;3.81;66.60
12949;BME280;6539;49.476;8.484;2022-12-19T08:18:36;101439.94;;;3.88;66.56
12949;BME280;6539;49.476;8.484;2022-12-19T08:21:02;101427.00;;;3.85;66.81
12949;BME280;6539;49.476;8.484;2022-12-19T08:23:32;101424.28;;;3.85;66.70
12949;BME280;6539;49.476;8.484;2022-12-19T08:26:02;101426.81;;;3.90;66.91
12949;BME280;6539;49.476;8.484;2022-12-19T08:28:36;101433.16;;;3.94;66.88
12949;BME280;6539;49.476;8.484;2022-12-19T08:31:11;101432.72;;;4.04;67.03
12949;BME280;6539;49.476;8.484;2022-12-19T08:33:37;101432.63;;;4.13;66.86
12949;BME280;6539;49.476;8.484;2022-12-19T08:36:12;101432.19;;;4.23;66.70
12949;BME280;6539;49.476;8.484;2022-12-19T08:38:39;101421.91;;;4.28;66.07
12949;BME280;6539;49.476;8.484;2022-12-19T08:41:09;101415.78;;;4.31;65.63
12949;BME280;6539;49.476;8.484;2022-12-19T08:43:36;101416.03;;;4.38;65.29
12949;BME280;6539;49.476;8.484;2022-12-19T08:46:03;101411.28;;;4.35;65.35
12949;BME280;6539;49.476;8.484;2022-12-19T08:48:33;101409.69;;;4.22;65.72
12949;BME280;6539;49.476;8.484;2022-12-19T08:51:05;101409.44;;;4.15;66.12
12949;BME280;6539;49.476;8.484;2022-12-19T08:53:36;101404.44;;;4.17;66.16
12949;BME280;6539;49.476;8.484;2022-12-19T08:56:11;101407.88;;;4.26;65.84
12949;BME280;6539;49.476;8.484;2022-12-19T08:58:40;101411.72;;;4.25;65.72
12949;BME280;6539;49.476;8.484;2022-12-19T09:01:10;101407.72;;;4.23;65.93
12949;BME280;6539;49.476;8.484;2022-12-19T09:03:45;101402.28;;;4.11;66.47
12949;BME280;6539;49.476;8.484;2022-12-19T09:06:12;101406.47;;;4.08;66.86
12949;BME280;6539;49.476;8.484;2022-12-19T09:08:39;101398.91;;;4.14;66.88
12949;BME280;6539;49.476;8.484;2022-12-19T09:11:14;101393.38;;;4.22;66.55
12949;BME280;6539;49.476;8.484;2022-12-19T09:13:42;101384.41;;;4.22;66.77
12949;BME280;6539;49.476;8.484;2022-12-19T09:16:21;101370.84;;;4.34;66.75
12949;BME280;6539;49.476;8.484;2022-12-19T09:18:53;101376.50;;;4.41;66.52
12949;BME280;6539;49.476;8.484;2022-12-19T09:21:25;101382.50;;;4.46;66.57
12949;BME280;6539;49.476;8.484;2022-12-19T09:23:59;101392.34;;;4.51;65.88
12949;BME280;6539;49.476;8.484;2022-12-19T09:26:26;101397.47;;;4.52;65.88
12949;BME280;6539;49.476;8.484;2022-12-19T09:28:54;101404.84;;;4.52;65.96
12949;BME280;6539;49.476;8.484;2022-12-19T09:31:27;101409.81;;;4.50;65.75
12949;BME280;6539;49.476;8.484;2022-12-19T09:33:53;101389.09;;;4.45;65.64
12949;BME280;6539;49.476;8.484;2022-12-19T09:36:23;101389.09;;;4.45;65.67
12949;BME280;6539;49.476;8.484;2022-12-19T09:38:57;101385.00;;;4.39;65.97
12949;BME280;6539;49.476;8.484;2022-12-19T09:45:56;101393.03;;;4.24;66.45
12949;BME280;6539;49.476;8.484;2022-12-19T09:48:25;101390.53;;;4.19;66.99
12949;BME280;6539;49.476;8.484;2022-12-19T09:56:30;101391.09;;;4.36;66.79
12949;BME280;6539;49.476;8.484;2022-12-19T09:59:13;101378.78;;;4.39;66.78
12949;BME280;6539;49.476;8.484;2022-12-19T10:07:43;101381.50;;;4.63;66.46
12949;BME280;6539;49.476;8.484;2022-12-19T10:16:50;101379.19;;;4.77;66.24
12949;BME280;6539;49.476;8.484;2022-12-19T10:19:44;101373.63;;;4.86;66.26
12949;BME280;6539;49.476;8.484;2022-12-19T10:25:39;101343.69;;;4.98;65.36
12949;BME280;6539;49.476;8.484;2022-12-19T10:30:48;101350.28;;;4.97;65.83
12949;BME280;6539;49.476;8.484;2022-12-19T10:33:25;101350.47;;;5.04;65.64
12949;BME280;6539;49.476;8.484;2022-12-19T10:36:00;101358.41;;;5.09;65.50
12949;BME280;6539;49.476;8.484;2022-12-19T10:39:11;101352.63;;;5.10;65.57
12949;BME280;6539;49.476;8.484;2022-12-19T10:41:43;101333.81;;;5.05;66.26
12949;BME280;6539;49.476;8.484;2022-12-19T10:44:13;101340.59;;;5.11;65.93
12949;BME280;6539;49.476;8.484;2022-12-19T10:46:49;101340.78;;;5.18;65.88
12949;BME280;6539;49.476;8.484;2022-12-19T10:49:17;101339.31;;;5.21;66.09
12949;BME280;6539;49.476;8.484;2022-12-19T10:52:03;101334.75;;;5.25;66.26
12949;BME280;6539;49.476;8.484;2022-12-19T11:00:25;101315.19;;;5.35;66.21
12949;BME280;6539;49.476;8.484;2022-12-19T11:03:11;101317.75;;;5.43;66.44
12949;BME280;6539;49.476;8.484;2022-12-19T11:05:47;101315.34;;;5.54;66.10
12949;BME280;6539;49.476;8.484;2022-12-19T11:08:38;101319.28;;;5.57;65.75
12949;BME280;6539;49.476;8.484;2022-12-19T11:13:43;101310.44;;;5.60;65.70
12949;BME280;6539;49.476;8.484;2022-12-19T11:16:11;101305.41;;;5.46;66.29
12949;BME280;6539;49.476;8.484;2022-12-19T11:18:43;101304.16;;;5.43;66.22
12949;BME280;6539;49.476;8.484;2022-12-19T11:26:29;101301.06;;;5.29;67.18
12949;BME280;6539;49.476;8.484;2022-12-19T11:31:46;101280.59;;;5.35;67.27
12949;BME280;6539;49.476;8.484;2022-12-19T11:34:20;101274.31;;;5.47;66.92
12949;BME280;6539;49.476;8.484;2022-12-19T11:37:24;101273.97;;;5.49;66.63
12949;BME280;6539;49.476;8.484;2022-12-19T11:40:32;101278.16;;;5.46;66.51
12949;BME280;6539;49.476;8.484;2022-12-19T11:51:47;101269.59;;;5.60;66.83
12949;BME280;6539;49.476;8.484;2022-12-19T11:54:37;101259.22;;;5.65;66.42
12949;BME280;6539;49.476;8.484;2022-12-19T11:57:10;101262.91;;;5.57;66.78
12949;BME280;6539;49.476;8.484;2022-12-19T11:59:39;101262.66;;;5.62;66.74
12949;BME280;6539;49.476;8.484;2022-12-19T12:02:41;101258.06;;;5.66;66.88
12949;BME280;6539;49.476;8.484;2022-12-19T12:05:50;101260.13;;;5.69;67.03
12949;BME280;6539;49.476;8.484;2022-12-19T12:08:53;101254.38;;;5.74;66.53
12949;BME280;6539;49.476;8.484;2022-12-19T12:11:44;101251.75;;;5.78;66.77
12949;BME280;6539;49.476;8.484;2022-12-19T12:25:52;101232.09;;;5.84;66.48
12949;BME280;6539;49.476;8.484;2022-12-19T12:40:44;101236.63;;;6.11;65.79
12949;BME280;6539;49.476;8.484;2022-12-19T12:43:38;101230.56;;;6.18;65.79
12949;BME280;6539;49.476;8.484;2022-12-19T12:46:15;101236.09;;;6.22;65.62
12949;BME280;6539;49.476;8.484;2022-12-19T12:51:17;101233.78;;;6.24;65.07
12949;BME280;6539;49.476;8.484;2022-12-19T12:53:49;101241.69;;;6.29;65.11
12949;BME280;6539;49.476;8.484;2022-12-19T12:56:19;101242.50;;;6.29;64.92
12949;BME280;6539;49.476;8.484;2022-12-19T13:07:02;101231.72;;;6.36;64.93
12949;BME280;6539;49.476;8.484;2022-12-19T13:09:36;101223.22;;;6.38;64.91
12949;BME280;6539;49.476;8.484;2022-12-19T13:12:24;101222.06;;;6.39;65.12
12949;BME280;6539;49.476;8.484;2022-12-19T13:28:42;101216.06;;;6.49;65.47
12949;BME280;6539;49.476;8.484;2022-12-19T13:39:30;101217.81;;;6.41;65.74
12949;BME280;6539;49.476;8.484;2022-12-19T13:42:15;101212.94;;;6.31;65.94
12949;BME280;6539;49.476;8.484;2022-12-19T13:45:17;101206.06;;;6.37;66.07
12949;BME280;6539;49.476;8.484;2022-12-19T13:47:53;101213.97;;;6.42;65.91
12949;BME280;6539;49.476;8.484;2022-12-19T13:50:38;101221.09;;;6.47;65.79
12949;BME280;6539;49.476;8.484;2022-12-19T13:53:21;101219.06;;;6.44;65.92
12949;BME280;6539;49.476;8.484;2022-12-19T13:55:48;101222.72;;;6.51;65.79
12949;BME280;6539;49.476;8.484;2022-12-19T13:58:31;101210.59;;;6.49;66.13
12949;BME280;6539;49.476;8.484;2022-12-19T14:01:06;101214.66;;;6.39;66.36
12949;BME280;6539;49.476;8.484;2022-12-19T14:03:41;101219.31;;;6.39;66.50
12949;BME280;6539;49.476;8.484;2022-12-19T14:06:26;101215.91;;;6.42;66.62
12949;BME280;6539;49.476;8.484;2022-12-19T14:09:08;101218.34;;;6.47;66.18
12949;BME280;6539;49.476;8.484;2022-12-19T14:11:48;101220.44;;;6.53;66.13
12949;BME280;6539;49.476;8.484;2022-12-19T14:14:18;101222.22;;;6.46;66.45
12949;BME280;6539;49.476;8.484;2022-12-19T14:17:18;101213.22;;;6.45;66.72
12949;BME280;6539;49.476;8.484;2022-12-19T14:19:49;101207.13;;;6.52;66.25
12949;BME280;6539;49.476;8.484;2022-12-19T14:25:03;101206.44;;;6.55;66.34
12949;BME280;6539;49.476;8.484;2022-12-19T14:27:40;101212.38;;;6.60;66.38
12949;BME280;6539;49.476;8.484;2022-12-19T14:30:20;101208.94;;;6.63;66.14
12949;BME280;6539;49.476;8.484;2022-12-19T14:32:52;101197.25;;;6.63;66.27
12949;BME280;6539;49.476;8.484;2022-12-19T14:35:36;101196.44;;;6.62;66.21
12949;BME280;6539;49.476;8.484;2022-12-19T14:38:14;101195.69;;;6.62;66.02
12949;BME280;6539;49.476;8.484;2022-12-19T14:40:42;101194.88;;;6.61;66.33
12949;BME280;6539;49.476;8.484;2022-12-19T14:43:15;101200.03;;;6.66;66.09
12949;BME280;6539;49.476;8.484;2022-12-19T14:49:00;101187.63;;;6.69;66.02
12949;BME280;6539;49.476;8.484;2022-12-19T14:51:36;101192.78;;;6.74;66.05
12949;BME280;6539;49.476;8.484;2022-12-19T14:59:34;101197.41;;;6.70;66.05
12949;BME280;6539;49.476;8.484;2022-12-19T15:04:45;101204.28;;;6.64;66.51
12949;BME280;6539;49.476;8.484;2022-12-19T15:07:20;101199.19;;;6.62;66.44
12949;BME280;6539;49.476;8.484;2022-12-19T15:12:25;101211.91;;;6.55;66.25
12949;BME280;6539;49.476;8.484;2022-12-19T15:15:52;101204.41;;;6.52;66.31
12949;BME280;6539;49.476;8.484;2022-12-19T15:21:04;101192.66;;;6.48;66.31
12949;BME280;6539;49.476;8.484;2022-12-19T15:23:33;101197.66;;;6.46;66.31
12949;BME280;6539;49.476;8.484;2022-12-19T15:26:04;101198.38;;;6.43;66.74
12949;BME280;6539;49.476;8.484;2022-12-19T15:31:34;101189.41;;;6.42;66.60
12949;BME280;6539;49.476;8.484;2022-12-19T15:34:25;101191.28;;;6.38;66.71
12949;BME280;6539;49.476;8.484;2022-12-19T15:36:53;101179.59;;;6.38;66.78
12949;BME280;6539;49.476;8.484;2022-12-19T15:39:24;101172.97;;;6.39;66.87
12949;BME280;6539;49.476;8.484;2022-12-19T15:42:01;101175.41;;;6.44;66.72
12949;BME280;6539;49.476;8.484;2022-12-19T15:44:35;101168.38;;;6.43;66.93
12949;BME280;6539;49.476;8.484;2022-12-19T15:47:05;101174.28;;;6.45;66.64
12949;BME280;6539;49.476;8.484;2022-12-19T15:49:31;101174.72;;;6.47;66.76
12949;BME280;6539;49.476;8.484;2022-12-19T15:52:10;101171.91;;;6.43;66.79
12949;BME280;6539;49.476;8.484;2022-12-19T15:54:39;101163.22;;;6.38;66.93
12949;BME280;6539;49.476;8.484;2022-12-19T15:59:45;101174.03;;;6.34;67.09
12949;BME280;6539;49.476;8.484;2022-12-19T16:02:21;101173.28;;;6.34;67.25
12949;BME280;6539;49.476;8.484;2022-12-19T16:04:52;101172.84;;;6.32;67.65
12949;BME280;6539;49.476;8.484;2022-12-19T16:07:22;101184.25;;;6.37;67.75
12949;BME280;6539;49.476;8.484;2022-12-19T16:09:52;101173.41;;;6.41;67.51
12949;BME280;6539;49.476;8.484;2022-12-19T16:12:49;101167.81;;;6.34;67.25
12949;BME280;6539;49.476;8.484;2022-12-19T16:17:50;101151.44;;;6.34;67.32
12949;BME280;6539;49.476;8.484;2022-12-19T16:20:23;101155.31;;;6.33;67.38